No data was retrieved for https://query.yahooapis.com/v1/public/yql?q=select+%2A+from+weather.forecast+where+woeid%3D731260&format=xml&u=c



METAR rapporten vliegvelden

   
EHAM - Amsterdam
Gewijzigd: 23-01-2020 02:55
Mist, Bewolking  
Mist, Bewolking  
   Wind: ZZO 1.9 km/h
Wind: ZZO 1.9 km/h
Temperatuur: 7°C
Dauwpunt: 6°C
Vochtigheid: 93%
Barometer: 1035 hPa
Bewolking: Bewolking
Zicht: 0 km
Bewolking: Grotendeels bewolkt,
Bewolking 100 ft
EHAM 230155Z 15001KT 0350 R18C/0325N R27/0450N R18R/0375N R06/1000N FG BKN000 OVC001 07/06 Q1035 NOSIG
EHBK - Maastricht
Gewijzigd: 23-01-2020 02:55
Lichte (mot)regen, Bewolking  
Lichte (mot)regen, Bewolking  
   Wind: Oosten 7.4 km/h
Wind: Oosten 7.4 km/h
Temperatuur: 2°C
Voelt als: 0°C
Dauwpunt: 2°C
Vochtigheid: 100%
Barometer: 1035 hPa
Bewolking: Bewolking
Zicht: 0 km
Bewolking: Bewolking
EHBK 230155Z AUTO 08004KT 050V110 0300 R21/0400N -DZ VV000 02/02 Q1035
ELLX - Luxemburg
Gewijzigd: 23-01-2020 02:50
Bewolking  
Bewolking  
   Wind: ONO 16.7 km/h
Wind: ONO 16.7 km/h
Temperatuur: 1°C
Voelt als: -3°C
Dauwpunt: 1°C
Vochtigheid: 100%
Barometer: 1033 hPa
Bewolking: Bewolking
Bewolking: Grotendeels bewolkt 300 ft,
Bewolking 400 ft
ELLX 230150Z AUTO 06009KT //// R24/P2000N // BKN003/// OVC004/// 01/01 Q1033 NOSIG
EDDL - Dusseldorf
Gewijzigd: 23-01-2020 02:50
Nevel, Bewolking  
Nevel, Bewolking  
   Wind: ZZO 5.6 km/h
Wind: ZZO 5.6 km/h
Temperatuur: 2°C
Voelt als: 1°C
Dauwpunt: 2°C
Vochtigheid: 100%
Barometer: 1036 hPa
Bewolking: Bewolking
Zicht: 4 km
Bewolking: Grotendeels bewolkt 500 ft,
Bewolking 2700 ft
EDDL 230150Z 15003KT 120V180 3800 BR BKN005 OVC027 02/02 Q1036 BECMG 5000 SCT005 BKN025
  

Script ontwikkeld door  Saratoga-weather.org Aangepast voor de template door  Weerstation Leuven